createdAt,value
2022-09-16T00:00:48.878Z,13.50
2022-09-16T00:03:16.696Z,13.57
2022-09-16T00:05:44.907Z,13.27
2022-09-16T00:08:12.177Z,13.50
2022-09-16T00:10:38.639Z,13.46
2022-09-16T00:13:05.603Z,13.38
2022-09-16T00:15:32.367Z,13.49
2022-09-16T00:17:59.611Z,13.19
2022-09-16T00:20:26.409Z,13.25
2022-09-16T00:22:52.962Z,13.23
2022-09-16T00:25:19.364Z,13.22
2022-09-16T00:27:49.063Z,13.19
2022-09-16T00:30:16.471Z,13.34
2022-09-16T00:32:44.772Z,13.39
2022-09-16T00:35:11.564Z,13.50
2022-09-16T00:37:38.189Z,13.53
2022-09-16T00:40:05.482Z,13.50
2022-09-16T00:42:37.564Z,13.40
2022-09-16T00:45:31.698Z,13.27
2022-09-16T00:48:01.722Z,13.31
2022-09-16T00:50:45.587Z,13.01
2022-09-16T00:53:29.341Z,13.12
2022-09-16T00:55:58.979Z,12.72
2022-09-16T00:58:44.573Z,13.01
2022-09-16T01:01:11.053Z,12.80
2022-09-16T01:03:46.947Z,12.97
2022-09-16T01:06:14.726Z,12.92
2022-09-16T01:08:43.601Z,12.98
2022-09-16T01:11:10.287Z,13.10
2022-09-16T01:13:38.327Z,13.11
2022-09-16T01:16:15.150Z,13.14
2022-09-16T01:19:13.992Z,13.02
2022-09-16T01:21:45.642Z,13.03
2022-09-16T01:24:38.304Z,12.80
2022-09-16T01:27:15.625Z,12.85
2022-09-16T01:29:59.367Z,12.80
2022-09-16T01:32:53.376Z,12.89
2022-09-16T01:35:24.342Z,12.96
2022-09-16T01:38:09.291Z,12.91
2022-09-16T01:40:47.929Z,12.84
2022-09-16T01:43:36.403Z,12.95
2022-09-16T01:46:28.519Z,12.91
2022-09-16T01:49:05.947Z,12.93
2022-09-16T01:51:41.643Z,12.87
2022-09-16T01:54:19.516Z,12.94
2022-09-16T01:57:09.076Z,12.74
2022-09-16T01:59:46.551Z,12.69
2022-09-16T02:02:19.908Z,12.49
2022-09-16T02:04:56.420Z,12.47
2022-09-16T02:07:31.169Z,12.28
2022-09-16T02:10:06.613Z,12.32
2022-09-16T02:12:37.264Z,12.62
2022-09-16T02:15:09.532Z,12.69
2022-09-16T02:17:44.648Z,12.73
2022-09-16T02:20:17.329Z,12.85
2022-09-16T02:22:51.302Z,12.80
2022-09-16T02:25:19.759Z,12.87
2022-09-16T02:27:49.276Z,12.95
2022-09-16T02:30:19.016Z,12.86
2022-09-16T02:32:59.554Z,12.84
2022-09-16T02:35:28.430Z,12.83
2022-09-16T02:38:01.762Z,12.89
2022-09-16T02:40:46.642Z,12.94
2022-09-16T02:43:13.239Z,12.79
2022-09-16T02:45:59.343Z,12.64
2022-09-16T02:48:58.746Z,12.78
2022-09-16T02:51:55.030Z,12.36
2022-09-16T02:54:50.705Z,12.02
2022-09-16T02:57:17.742Z,12.24
2022-09-16T02:59:44.813Z,12.20
2022-09-16T03:02:11.397Z,12.23
2022-09-16T03:04:37.905Z,12.27
2022-09-16T03:07:11.088Z,11.98
2022-09-16T03:09:42.578Z,12.12
2022-09-16T03:12:24.458Z,12.21
2022-09-16T03:15:05.027Z,12.03
2022-09-16T03:18:03.669Z,12.08
2022-09-16T03:20:48.447Z,11.93
2022-09-16T03:23:32.034Z,11.82
2022-09-16T03:26:20.362Z,11.77
2022-09-16T03:29:12.815Z,11.86
2022-09-16T03:32:01.419Z,11.84
2022-09-16T03:34:35.965Z,11.81
2022-09-16T03:37:10.035Z,11.77
2022-09-16T03:39:37.518Z,11.65
2022-09-16T03:42:11.237Z,11.87
2022-09-16T03:44:40.100Z,11.79
2022-09-16T03:47:07.991Z,11.76
2022-09-16T03:49:35.097Z,11.87
2022-09-16T03:52:01.787Z,11.73
2022-09-16T03:54:28.193Z,11.73
2022-09-16T03:56:54.605Z,11.81
2022-09-16T03:59:20.976Z,11.86
2022-09-16T04:01:47.818Z,11.84
2022-09-16T04:04:14.581Z,11.75
2022-09-16T04:06:41.070Z,11.71
2022-09-16T04:09:12.043Z,11.54
2022-09-16T04:11:39.735Z,11.53
2022-09-16T04:14:07.128Z,11.56
2022-09-16T04:16:34.655Z,11.56
2022-09-16T04:19:01.174Z,11.56
2022-09-16T04:21:27.854Z,11.53
2022-09-16T04:23:54.615Z,11.36
2022-09-16T04:26:21.457Z,11.56
2022-09-16T04:28:50.986Z,11.61
2022-09-16T04:31:17.488Z,11.67
2022-09-16T04:33:44.006Z,11.74
2022-09-16T04:36:19.060Z,11.70
2022-09-16T04:38:47.897Z,11.70
2022-09-16T04:41:19.938Z,11.58
2022-09-16T04:43:47.484Z,11.62
2022-09-16T04:46:14.115Z,11.58
2022-09-16T04:48:40.531Z,11.66
2022-09-16T04:51:09.829Z,11.56
2022-09-16T04:53:38.077Z,11.55
2022-09-16T04:56:05.740Z,11.33
2022-09-16T04:58:32.349Z,11.28
2022-09-16T05:01:08.007Z,11.25
2022-09-16T05:03:34.455Z,11.17
2022-09-16T05:06:05.952Z,11.19
2022-09-16T05:08:35.162Z,10.97
2022-09-16T05:11:06.896Z,11.05
2022-09-16T05:13:33.703Z,11.09
2022-09-16T05:16:08.097Z,11.01
2022-09-16T05:18:35.945Z,11.02
2022-09-16T05:21:04.782Z,11.06
2022-09-16T05:23:32.298Z,11.09
2022-09-16T05:26:10.557Z,11.07
2022-09-16T05:28:37.273Z,11.08
2022-09-16T05:31:20.435Z,11.25
2022-09-16T05:34:00.461Z,11.56
2022-09-16T05:36:28.884Z,11.98
2022-09-16T05:39:21.081Z,12.22
2022-09-16T05:41:42.928Z,12.24
2022-09-16T05:44:09.414Z,12.01
2022-09-16T05:46:36.292Z,11.75
2022-09-16T05:49:03.072Z,11.75
2022-09-16T05:51:29.472Z,11.77
2022-09-16T05:53:55.975Z,12.09
2022-09-16T05:56:27.513Z,12.58
2022-09-16T05:58:56.112Z,12.77
2022-09-16T06:01:33.857Z,12.94
2022-09-16T06:04:02.345Z,13.34
2022-09-16T06:06:31.308Z,13.90
2022-09-16T06:09:04.410Z,14.31
2022-09-16T06:11:31.119Z,14.50
2022-09-16T06:14:02.934Z,14.55
2022-09-16T06:16:32.949Z,14.59
2022-09-16T06:19:01.710Z,15.03
2022-09-16T06:21:29.177Z,15.90
2022-09-16T06:23:56.534Z,15.74
2022-09-16T06:26:25.949Z,15.06
2022-09-16T06:28:53.361Z,14.69
2022-09-16T06:31:23.088Z,14.45
2022-09-16T06:33:50.524Z,14.10
2022-09-16T06:36:20.721Z,13.59
2022-09-16T06:38:47.844Z,13.40
2022-09-16T06:41:16.021Z,13.56
2022-09-16T06:43:43.012Z,13.12
2022-09-16T06:46:18.237Z,12.91
2022-09-16T06:48:47.561Z,13.42
2022-09-16T06:51:19.510Z,14.68
2022-09-16T06:53:46.743Z,16.53
2022-09-16T06:56:15.100Z,17.13
2022-09-16T06:58:43.741Z,18.68
2022-09-16T07:01:18.229Z,19.21
2022-09-16T07:03:47.033Z,18.74
2022-09-16T07:06:14.896Z,18.36
2022-09-16T07:08:42.221Z,17.22
2022-09-16T07:11:18.611Z,16.98
2022-09-16T07:13:47.140Z,16.13
2022-09-16T07:16:18.729Z,14.91
2022-09-16T07:18:46.911Z,14.23
2022-09-16T07:21:18.382Z,14.18
2022-09-16T07:23:45.952Z,14.24
2022-09-16T07:26:20.420Z,13.92
2022-09-16T07:28:48.494Z,13.53
2022-09-16T07:31:19.076Z,13.55
2022-09-16T07:33:49.105Z,13.47
2022-09-16T07:36:21.745Z,13.71
2022-09-16T07:38:48.768Z,13.93
2022-09-16T07:41:24.069Z,14.07
2022-09-16T07:43:50.701Z,13.97
2022-09-16T07:46:18.572Z,13.85
2022-09-16T07:48:48.029Z,13.80
2022-09-16T07:51:20.515Z,13.82
2022-09-16T07:53:47.416Z,14.37
2022-09-16T07:56:19.423Z,15.04
2022-09-16T07:58:47.326Z,14.62
2022-09-16T08:01:15.793Z,15.41
2022-09-16T08:03:43.492Z,16.24
2022-09-16T08:06:13.271Z,17.11
2022-09-16T08:08:40.429Z,18.53
2022-09-16T08:11:08.085Z,19.24
2022-09-16T08:13:36.352Z,19.07
2022-09-16T08:16:06.061Z,18.39
2022-09-16T08:18:33.057Z,19.50
2022-09-16T08:21:05.906Z,20.08
2022-09-16T08:23:32.449Z,19.99
2022-09-16T08:25:59.316Z,18.28
2022-09-16T08:28:35.798Z,18.56
2022-09-16T08:31:12.436Z,19.39
2022-09-16T08:33:40.349Z,19.49
2022-09-16T08:36:17.237Z,19.24
2022-09-16T08:38:44.820Z,19.88
2022-09-16T08:41:33.225Z,19.32
2022-09-16T08:44:22.398Z,20.09
2022-09-16T08:47:19.902Z,20.42
2022-09-16T08:49:47.927Z,19.86
2022-09-16T08:52:33.022Z,20.76
2022-09-16T08:55:05.275Z,20.66
2022-09-16T08:57:38.284Z,21.16
2022-09-16T09:00:12.030Z,21.00
2022-09-16T09:05:40.242Z,20.26
2022-09-16T09:08:18.636Z,21.37
2022-09-16T09:10:57.253Z,21.92
2022-09-16T09:14:01.494Z,20.38
2022-09-16T09:16:34.168Z,19.86
2022-09-16T09:19:22.446Z,19.70
2022-09-16T09:22:13.892Z,18.91
2022-09-16T09:25:17.957Z,19.29
2022-09-16T09:27:55.036Z,18.33
2022-09-16T09:30:24.233Z,18.16
2022-09-16T09:33:27.732Z,17.55
2022-09-16T09:36:14.066Z,17.07
2022-09-16T09:39:04.347Z,16.47
2022-09-16T09:41:45.087Z,16.59
2022-09-16T09:44:33.961Z,16.21
2022-09-16T09:47:11.328Z,16.58
2022-09-16T09:49:43.750Z,15.88
2022-09-16T09:52:31.218Z,16.11
2022-09-16T09:55:15.444Z,16.31
2022-09-16T09:58:05.531Z,17.09
2022-09-16T10:00:32.718Z,17.56
2022-09-16T10:03:18.639Z,17.09
2022-09-16T10:05:47.110Z,16.30
2022-09-16T10:08:19.212Z,16.39
2022-09-16T10:10:48.628Z,18.06
2022-09-16T10:13:15.060Z,20.11
2022-09-16T10:15:41.481Z,22.34
2022-09-16T10:18:23.362Z,23.68
2022-09-16T10:21:12.716Z,23.97
2022-09-16T10:23:39.544Z,24.48
2022-09-16T10:26:27.037Z,23.66
2022-09-16T10:29:02.262Z,24.01
2022-09-16T10:31:37.686Z,23.78
2022-09-16T10:34:13.624Z,22.63
2022-09-16T10:36:40.116Z,21.22
2022-09-16T10:39:06.603Z,21.68
2022-09-16T10:41:47.289Z,22.42
2022-09-16T10:44:18.483Z,22.51
2022-09-16T10:46:54.125Z,24.58
2022-09-16T10:49:26.815Z,25.67
2022-09-16T10:51:53.409Z,26.83
2022-09-16T10:54:28.532Z,27.29
2022-09-16T10:56:55.236Z,25.66
2022-09-16T10:59:21.666Z,24.06
2022-09-16T11:02:17.842Z,22.64
2022-09-16T11:05:17.042Z,21.46
2022-09-16T11:07:43.439Z,20.89
2022-09-16T11:10:12.441Z,20.75
2022-09-16T11:12:42.046Z,20.25
2022-09-16T11:15:20.358Z,19.06
2022-09-16T11:18:05.103Z,18.55
2022-09-16T11:21:05.309Z,18.40
2022-09-16T11:23:49.979Z,18.17
2022-09-16T11:26:44.575Z,17.71
2022-09-16T11:29:38.511Z,17.26
2022-09-16T11:32:19.873Z,17.51
2022-09-16T11:35:07.457Z,19.03
2022-09-16T11:37:46.040Z,19.96
2022-09-16T11:40:34.407Z,22.50
2022-09-16T11:43:21.320Z,24.29
2022-09-16T11:46:20.389Z,24.08
2022-09-16T11:49:00.762Z,23.32
2022-09-16T11:51:58.766Z,21.90
2022-09-16T11:54:28.051Z,21.56
2022-09-16T11:57:04.515Z,21.77
2022-09-16T11:59:51.611Z,21.16
2022-09-16T12:02:45.235Z,21.69
2022-09-16T12:05:22.794Z,22.67
2022-09-16T12:08:12.866Z,23.20
2022-09-16T12:10:59.600Z,24.45
2022-09-16T12:13:37.046Z,25.33
2022-09-16T12:16:11.317Z,25.85
2022-09-16T12:18:45.314Z,26.68
2022-09-16T12:21:28.443Z,27.71
2022-09-16T12:24:06.225Z,28.15
2022-09-16T12:27:05.985Z,28.73
2022-09-16T12:29:53.678Z,28.38
2022-09-16T12:32:31.053Z,29.35
2022-09-16T12:35:02.787Z,29.16
2022-09-16T12:37:33.806Z,29.24
2022-09-16T12:40:01.788Z,29.07
2022-09-16T12:42:45.897Z,28.35
2022-09-16T12:45:48.294Z,28.74
2022-09-16T12:48:20.845Z,28.98
2022-09-16T12:51:02.840Z,27.85
2022-09-16T12:54:06.417Z,27.09
2022-09-16T12:56:43.203Z,26.52
2022-09-16T12:59:21.643Z,27.63
2022-09-16T13:01:59.596Z,27.37
2022-09-16T13:04:54.381Z,27.08
2022-09-16T13:07:24.875Z,27.61
2022-09-16T13:10:04.750Z,27.87
2022-09-16T13:12:40.859Z,27.95
2022-09-16T13:15:24.359Z,26.68
2022-09-16T13:17:53.122Z,27.57
2022-09-16T13:20:34.027Z,28.19
2022-09-16T13:23:24.802Z,28.97
2022-09-16T13:26:09.578Z,30.85
2022-09-16T13:28:41.338Z,30.12
2022-09-16T13:31:18.130Z,27.22
2022-09-16T13:33:50.208Z,25.68
2022-09-16T13:36:16.885Z,23.55
2022-09-16T13:38:55.150Z,21.61
2022-09-16T13:41:39.937Z,20.58
2022-09-16T13:44:37.199Z,19.75
2022-09-16T13:47:31.955Z,19.58
2022-09-16T13:50:06.550Z,20.76
2022-09-16T13:52:35.283Z,21.98
2022-09-16T13:55:10.465Z,23.81
2022-09-16T13:57:58.670Z,21.49
2022-09-16T14:00:36.232Z,20.07
2022-09-16T14:03:24.435Z,18.91
2022-09-16T14:06:00.448Z,18.16
2022-09-16T14:08:42.963Z,18.19
2022-09-16T14:11:19.517Z,18.70
2022-09-16T14:13:50.867Z,18.94
2022-09-16T14:16:22.836Z,19.77
2022-09-16T14:19:03.291Z,22.25
2022-09-16T14:24:08.152Z,21.56
2022-09-16T14:26:34.940Z,20.76
2022-09-16T14:29:03.564Z,20.10
2022-09-16T14:31:32.595Z,22.67
2022-09-16T14:34:07.499Z,25.05
2022-09-16T14:36:38.689Z,25.45
2022-09-16T14:39:17.882Z,24.17
2022-09-16T14:41:51.263Z,21.62
2022-09-16T14:44:20.671Z,19.97
2022-09-16T14:46:56.787Z,17.94
2022-09-16T14:49:31.909Z,16.78
2022-09-16T14:52:02.021Z,16.12
2022-09-16T14:54:28.988Z,15.58
2022-09-16T14:56:59.543Z,15.13
2022-09-16T14:59:32.377Z,14.22
2022-09-16T15:02:07.300Z,14.28
2022-09-16T15:04:38.888Z,14.08
2022-09-16T15:07:12.585Z,13.66
2022-09-16T15:09:57.300Z,13.42
2022-09-16T15:12:28.193Z,13.07
2022-09-16T15:14:55.083Z,13.12
2022-09-16T15:17:25.809Z,13.53
2022-09-16T15:19:57.609Z,13.66
2022-09-16T15:22:25.523Z,13.93
2022-09-16T15:24:55.957Z,14.17
2022-09-16T15:27:28.886Z,14.45
2022-09-16T15:29:59.344Z,14.54
2022-09-16T15:32:29.627Z,14.53
2022-09-16T15:35:22.464Z,14.33
2022-09-16T15:37:49.750Z,14.32
2022-09-16T15:40:28.188Z,13.88
2022-09-16T15:43:04.553Z,13.54
2022-09-16T15:45:31.502Z,13.23
2022-09-16T15:48:07.138Z,13.32
2022-09-16T15:50:57.095Z,13.39
2022-09-16T15:53:29.673Z,13.31
2022-09-16T15:56:04.339Z,13.18
2022-09-16T15:58:39.775Z,13.08
2022-09-16T16:01:12.233Z,13.16
2022-09-16T16:03:44.655Z,12.91
2022-09-16T16:06:12.377Z,12.60
2022-09-16T16:08:41.621Z,12.65
2022-09-16T16:11:17.054Z,12.76
2022-09-16T16:13:43.947Z,12.97
2022-09-16T16:16:12.945Z,13.04
2022-09-16T16:18:40.685Z,13.51
2022-09-16T16:21:10.509Z,13.39
2022-09-16T16:23:37.739Z,13.08
2022-09-16T16:26:07.053Z,13.04
2022-09-16T16:28:34.266Z,12.88
2022-09-16T16:31:18.597Z,12.90
2022-09-16T16:33:47.662Z,12.75
2022-09-16T16:36:15.984Z,12.13
2022-09-16T16:38:42.771Z,12.38
2022-09-16T16:41:10.605Z,12.21
2022-09-16T16:43:37.002Z,12.37
2022-09-16T16:46:04.394Z,12.37
2022-09-16T16:48:31.105Z,11.99
2022-09-16T16:51:03.581Z,12.14
2022-09-16T16:53:31.042Z,11.90
2022-09-16T16:56:14.495Z,11.71
2022-09-16T16:58:41.583Z,11.91
2022-09-16T17:01:13.123Z,11.84
2022-09-16T17:03:40.468Z,11.73
2022-09-16T17:06:07.700Z,11.54
2022-09-16T17:08:35.617Z,11.65
2022-09-16T17:11:21.259Z,11.54
2022-09-16T17:13:50.204Z,11.52
2022-09-16T17:16:20.955Z,11.54
2022-09-16T17:18:48.227Z,11.44
2022-09-16T17:21:20.702Z,11.24
2022-09-16T17:23:47.513Z,11.00
2022-09-16T17:26:14.486Z,10.83
2022-09-16T17:28:43.471Z,10.64
2022-09-16T17:31:11.800Z,10.70
2022-09-16T17:33:38.256Z,10.69
2022-09-16T17:36:06.688Z,10.86
2022-09-16T17:38:33.711Z,10.60
2022-09-16T17:41:08.603Z,10.49
2022-09-16T17:43:35.687Z,10.39
2022-09-16T17:46:04.790Z,10.30
2022-09-16T17:48:32.029Z,10.22
2022-09-16T17:50:58.885Z,10.13
2022-09-16T17:53:25.810Z,9.80
2022-09-16T17:55:52.188Z,9.87
2022-09-16T17:58:18.609Z,9.83
2022-09-16T18:00:45.009Z,9.82
2022-09-16T18:03:12.276Z,9.92
2022-09-16T18:05:39.162Z,9.97
2022-09-16T18:08:05.745Z,9.87
2022-09-16T18:10:32.324Z,9.88
2022-09-16T18:12:58.797Z,9.96
2022-09-16T18:15:25.432Z,10.05
2022-09-16T18:17:53.127Z,10.03
2022-09-16T18:20:19.745Z,10.13
2022-09-16T18:22:46.227Z,10.28
2022-09-16T18:25:12.851Z,10.34
2022-09-16T18:27:43.872Z,10.37
2022-09-16T18:30:11.264Z,10.25
2022-09-16T18:32:37.651Z,10.36
2022-09-16T18:35:04.477Z,10.43
2022-09-16T18:37:30.969Z,10.58
2022-09-16T18:39:57.361Z,10.68
2022-09-16T18:42:23.773Z,10.64
2022-09-16T18:44:50.254Z,10.69
2022-09-16T18:47:16.738Z,10.49
2022-09-16T18:49:43.100Z,10.35
2022-09-16T18:52:09.644Z,10.21
2022-09-16T18:54:36.121Z,10.15
2022-09-16T18:57:02.633Z,10.02
2022-09-16T18:59:31.540Z,10.04
2022-09-16T19:02:00.067Z,10.03
2022-09-16T19:04:29.200Z,9.98
2022-09-16T19:06:59.536Z,9.91
2022-09-16T19:09:26.407Z,9.76
2022-09-16T19:11:54.525Z,9.56
2022-09-16T19:14:24.480Z,9.33
2022-09-16T19:16:51.786Z,9.32
2022-09-16T19:19:19.372Z,9.26
2022-09-16T19:21:45.910Z,9.42
2022-09-16T19:24:16.648Z,9.34
2022-09-16T19:26:44.602Z,9.31
2022-09-16T19:29:13.061Z,9.37
2022-09-16T19:31:41.246Z,9.40
2022-09-16T19:34:08.426Z,9.36
2022-09-16T19:36:36.076Z,9.28
2022-09-16T19:39:04.009Z,9.40
2022-09-16T19:41:32.539Z,9.34
2022-09-16T19:44:05.539Z,9.25
2022-09-16T19:46:37.650Z,9.37
2022-09-16T19:49:05.821Z,9.41
2022-09-16T19:51:33.070Z,9.43
2022-09-16T19:54:00.836Z,9.45
2022-09-16T19:56:30.754Z,9.22
2022-09-16T19:58:57.748Z,9.22
2022-09-16T20:01:28.312Z,9.07
2022-09-16T20:03:55.951Z,9.08
2022-09-16T20:06:25.284Z,9.23
2022-09-16T20:08:58.638Z,9.21
2022-09-16T20:11:28.391Z,9.32
2022-09-16T20:13:57.258Z,9.40
2022-09-16T20:16:31.345Z,9.49
2022-09-16T20:18:58.150Z,9.58
2022-09-16T20:21:27.005Z,9.51
2022-09-16T20:23:54.282Z,9.62
2022-09-16T20:26:21.949Z,9.52
2022-09-16T20:28:50.693Z,9.54
2022-09-16T20:31:22.562Z,9.69
2022-09-16T20:33:49.516Z,9.70
2022-09-16T20:36:17.636Z,9.72
2022-09-16T20:38:44.699Z,9.85
2022-09-16T20:41:15.040Z,10.00
2022-09-16T20:43:41.997Z,10.00
2022-09-16T20:46:18.214Z,9.99
2022-09-16T20:48:45.410Z,9.80
2022-09-16T20:51:14.892Z,9.96
2022-09-16T20:53:42.242Z,9.63
2022-09-16T20:56:15.089Z,9.62
2022-09-16T20:58:42.903Z,9.61
2022-09-16T21:01:23.845Z,9.56
2022-09-16T21:04:05.217Z,9.37
2022-09-16T21:06:34.521Z,9.43
2022-09-16T21:09:05.395Z,9.37
2022-09-16T21:11:33.047Z,9.29
2022-09-16T21:14:01.498Z,9.14
2022-09-16T21:16:31.907Z,9.22
2022-09-16T21:19:00.296Z,9.34
2022-09-16T21:21:28.768Z,9.58
2022-09-16T21:23:57.851Z,9.79
2022-09-16T21:26:27.171Z,9.79
2022-09-16T21:28:59.154Z,9.68
2022-09-16T21:31:28.245Z,9.91
2022-09-16T21:33:55.277Z,9.85
2022-09-16T21:36:23.548Z,9.87
2022-09-16T21:38:50.291Z,9.87
2022-09-16T21:41:18.718Z,9.60
2022-09-16T21:43:49.448Z,9.48
2022-09-16T21:46:20.065Z,9.64
2022-09-16T21:48:47.833Z,9.46
2022-09-16T21:51:16.870Z,9.72
2022-09-16T21:53:44.373Z,9.66
2022-09-16T21:56:19.503Z,9.51
2022-09-16T21:58:47.435Z,9.49
2022-09-16T22:01:17.978Z,9.35
2022-09-16T22:03:47.515Z,9.48
2022-09-16T22:06:19.467Z,9.45
2022-09-16T22:08:59.130Z,9.17
2022-09-16T22:11:28.494Z,9.30
2022-09-16T22:13:56.068Z,9.37
2022-09-16T22:16:28.679Z,9.47
2022-09-16T22:18:58.827Z,9.46
2022-09-16T22:21:27.288Z,9.47
2022-09-16T22:23:54.023Z,9.52
2022-09-16T22:26:22.384Z,9.57
2022-09-16T22:28:49.916Z,9.60
2022-09-16T22:31:24.531Z,9.44
2022-09-16T22:33:53.026Z,9.40
2022-09-16T22:36:22.746Z,9.52
2022-09-16T22:38:54.389Z,9.55
2022-09-16T22:41:21.974Z,9.59
2022-09-16T22:43:49.898Z,9.39
2022-09-16T22:46:19.027Z,9.53
2022-09-16T22:48:46.629Z,9.20
2022-09-16T22:51:14.573Z,9.41
2022-09-16T22:53:42.279Z,9.65
2022-09-16T22:56:20.581Z,9.57
2022-09-16T22:58:51.848Z,9.35
2022-09-16T23:01:20.543Z,9.23
2022-09-16T23:03:51.133Z,9.36
2022-09-16T23:06:17.570Z,9.45
2022-09-16T23:08:47.842Z,9.54
2022-09-16T23:11:17.037Z,9.48
2022-09-16T23:13:45.159Z,9.30
2022-09-16T23:16:17.911Z,9.28
2022-09-16T23:18:45.984Z,9.23
2022-09-16T23:21:14.780Z,9.21
2022-09-16T23:23:43.348Z,9.27
2022-09-16T23:26:15.985Z,9.30
2022-09-16T23:28:42.946Z,9.29
2022-09-16T23:31:15.141Z,9.20
2022-09-16T23:33:42.308Z,9.23
2022-09-16T23:36:10.444Z,9.28
2022-09-16T23:38:38.000Z,9.31
2022-09-16T23:41:05.703Z,9.09
2022-09-16T23:43:32.627Z,9.15
2022-09-16T23:46:01.862Z,9.11
2022-09-16T23:48:29.758Z,9.09
2022-09-16T23:50:56.801Z,8.94
2022-09-16T23:53:23.306Z,8.96
2022-09-16T23:55:50.076Z,9.32
2022-09-16T23:58:17.002Z,9.19
